Poplar Plains, Kentucky
Current Conditions -  °F | °C
As of 10:15 AM on Thursday 30 Oct 2014 (Local Time) from KFGX Reporting Station
Overcast Overcast  
Wind Chill: 42°   Ceiling: 3900
Heat Index: 45°   Visibility: 10mi
Dew Point: 36°   Wind: 5mph
Humidity: 72%   Direction: 50°NE
Pressure: 30.18"   Gusts: NA
Location:  38.436°N, 83.6931°W
Report Text: KFGX 301415Z AUTO 05004KT 10SM OVC039 07/02 A3018 RMK AO2 T00700022
Loading
Personal Weather Stations






























Interactive Weather Map
Tropical Storm Tracking
New forecast layout! Learn more

10-Day Weather Forecast

Advertisements
Track Severe Weather on mobile